createdAt,value
2018-06-08T00:00:52.218Z,0.00
2018-06-08T00:01:52.432Z,0.00
2018-06-08T00:02:52.660Z,0.00
2018-06-08T00:03:52.914Z,0.00
2018-06-08T00:04:53.129Z,0.00
2018-06-08T00:05:53.368Z,0.00
2018-06-08T00:06:53.598Z,0.00
2018-06-08T00:07:53.825Z,0.00
2018-06-08T00:08:54.065Z,0.00
2018-06-08T00:09:54.338Z,0.00
2018-06-08T00:10:54.555Z,0.00
2018-06-08T00:11:54.788Z,0.00
2018-06-08T00:12:55.032Z,0.00
2018-06-08T00:13:55.277Z,0.00
2018-06-08T00:14:55.507Z,0.00
2018-06-08T00:15:55.752Z,0.00
2018-06-08T00:16:56.001Z,0.00
2018-06-08T00:17:56.242Z,0.00
2018-06-08T00:18:56.460Z,0.00
2018-06-08T00:19:56.701Z,0.00
2018-06-08T00:20:56.950Z,0.00
2018-06-08T00:21:57.190Z,0.00
2018-06-08T00:22:57.427Z,0.00
2018-06-08T00:23:57.671Z,0.00
2018-06-08T00:24:57.913Z,0.00
2018-06-08T00:25:58.158Z,0.00
2018-06-08T00:26:58.417Z,0.00
2018-06-08T00:27:58.642Z,0.00
2018-06-08T00:28:58.878Z,0.00
2018-06-08T00:29:59.110Z,0.00
2018-06-08T00:30:59.359Z,0.00
2018-06-08T00:31:59.602Z,0.00
2018-06-08T00:32:59.837Z,0.00
2018-06-08T00:34:00.077Z,0.00
2018-06-08T00:35:00.316Z,0.00
2018-06-08T00:36:00.543Z,0.00
2018-06-08T00:37:00.797Z,0.00
2018-06-08T00:38:01.020Z,0.00
2018-06-08T00:39:01.276Z,0.00
2018-06-08T00:40:01.521Z,0.00
2018-06-08T00:41:01.767Z,0.00
2018-06-08T00:42:02.011Z,0.00
2018-06-08T00:43:02.261Z,0.00
2018-06-08T00:44:02.499Z,0.00
2018-06-08T00:45:02.746Z,0.00
2018-06-08T00:46:02.976Z,0.00
2018-06-08T00:47:03.217Z,0.00
2018-06-08T00:48:03.473Z,0.00
2018-06-08T00:49:03.694Z,0.00
2018-06-08T00:50:03.943Z,0.00
2018-06-08T00:51:04.194Z,0.00
2018-06-08T00:52:04.440Z,0.00
2018-06-08T00:53:04.678Z,0.00
2018-06-08T00:54:04.921Z,0.00
2018-06-08T00:55:05.200Z,0.00
2018-06-08T00:56:05.406Z,0.00
2018-06-08T00:57:05.676Z,0.00
2018-06-08T00:58:05.896Z,0.00
2018-06-08T00:59:06.119Z,0.00
2018-06-08T01:00:06.359Z,0.00
2018-06-08T01:01:06.591Z,0.00
2018-06-08T01:02:06.835Z,0.00
2018-06-08T01:03:07.085Z,0.00
2018-06-08T01:04:07.323Z,0.00
2018-06-08T01:05:07.555Z,0.00
2018-06-08T01:06:07.830Z,0.00
2018-06-08T01:07:08.049Z,0.00
2018-06-08T01:08:08.293Z,0.00
2018-06-08T01:09:08.524Z,0.00
2018-06-08T01:10:08.769Z,0.00
2018-06-08T01:11:08.989Z,0.00
2018-06-08T01:12:09.246Z,0.00
2018-06-08T01:13:09.488Z,0.00
2018-06-08T01:14:09.716Z,0.00
2018-06-08T01:15:09.947Z,0.00
2018-06-08T01:16:10.194Z,0.00
2018-06-08T01:17:10.423Z,0.00
2018-06-08T01:18:10.673Z,0.00
2018-06-08T01:19:10.916Z,0.00
2018-06-08T01:20:11.155Z,0.00
2018-06-08T01:21:11.383Z,0.00
2018-06-08T01:22:11.664Z,0.00
2018-06-08T01:23:11.897Z,0.00
2018-06-08T01:24:12.137Z,0.00
2018-06-08T01:25:12.372Z,0.00
2018-06-08T01:26:12.632Z,0.00
2018-06-08T01:27:12.860Z,0.00
2018-06-08T01:28:13.112Z,0.00
2018-06-08T01:29:13.360Z,0.00
2018-06-08T01:30:13.591Z,0.00
2018-06-08T01:31:13.862Z,0.00
2018-06-08T01:32:14.074Z,0.00
2018-06-08T01:33:14.331Z,0.00
2018-06-08T01:34:14.545Z,0.00
2018-06-08T01:35:14.798Z,0.00
2018-06-08T01:36:15.031Z,0.00
2018-06-08T01:37:15.260Z,0.00
2018-06-08T01:38:15.543Z,0.00
2018-06-08T01:39:15.737Z,0.00
2018-06-08T01:40:15.999Z,0.00
2018-06-08T01:41:16.210Z,0.00
2018-06-08T01:42:16.458Z,0.00
2018-06-08T01:43:16.681Z,0.00
2018-06-08T01:44:16.914Z,0.00
2018-06-08T01:45:17.159Z,0.00
2018-06-08T01:46:17.409Z,0.00
2018-06-08T01:47:17.661Z,0.00
2018-06-08T01:48:17.880Z,0.00
2018-06-08T01:49:18.120Z,0.00
2018-06-08T01:50:18.354Z,0.00
2018-06-08T01:51:18.578Z,0.00
2018-06-08T01:52:18.835Z,0.00
2018-06-08T01:53:19.079Z,0.00
2018-06-08T01:54:19.316Z,0.00
2018-06-08T01:55:19.552Z,0.00
2018-06-08T01:56:19.777Z,0.00
2018-06-08T01:57:20.017Z,0.00
2018-06-08T01:58:20.278Z,0.00
2018-06-08T01:59:20.505Z,0.00
2018-06-08T02:00:20.746Z,0.00
2018-06-08T02:01:20.979Z,0.00
2018-06-08T02:02:21.217Z,0.00
2018-06-08T02:03:21.443Z,0.00
2018-06-08T02:04:21.686Z,0.00
2018-06-08T02:05:21.941Z,0.00
2018-06-08T02:06:22.173Z,0.00
2018-06-08T02:07:22.425Z,0.00
2018-06-08T02:08:22.696Z,0.00
2018-06-08T02:09:22.893Z,0.00
2018-06-08T02:10:23.146Z,0.00
2018-06-08T02:11:23.386Z,0.00
2018-06-08T02:12:23.642Z,0.00
2018-06-08T02:13:23.855Z,0.00
2018-06-08T02:14:24.096Z,0.00
2018-06-08T02:15:24.335Z,0.00
2018-06-08T02:16:24.572Z,0.00
2018-06-08T02:17:24.820Z,0.00
2018-06-08T02:18:25.077Z,0.00
2018-06-08T02:19:25.293Z,0.00
2018-06-08T02:20:25.554Z,0.00
2018-06-08T02:21:25.804Z,0.00
2018-06-08T02:22:26.021Z,0.00
2018-06-08T02:23:26.268Z,0.00
2018-06-08T02:24:26.498Z,0.00
2018-06-08T02:25:26.739Z,0.00
2018-06-08T02:26:26.999Z,0.00
2018-06-08T02:27:27.234Z,0.00
2018-06-08T02:28:27.448Z,0.00
2018-06-08T02:29:27.691Z,0.00
2018-06-08T02:30:27.937Z,0.00
2018-06-08T02:31:28.173Z,0.00
2018-06-08T02:32:28.397Z,0.00
2018-06-08T02:33:28.664Z,0.00
2018-06-08T02:34:28.906Z,0.00
2018-06-08T02:35:29.147Z,0.00
2018-06-08T02:36:29.388Z,0.00
2018-06-08T02:37:29.664Z,0.00
2018-06-08T02:38:29.865Z,0.00
2018-06-08T02:39:30.131Z,0.00
2018-06-08T02:40:30.323Z,0.00
2018-06-08T02:41:30.575Z,0.00
2018-06-08T02:42:30.818Z,0.00
2018-06-08T02:43:31.070Z,0.00
2018-06-08T02:44:31.265Z,0.00
2018-06-08T02:45:31.534Z,0.00
2018-06-08T02:46:31.777Z,0.00
2018-06-08T02:47:32.025Z,0.00
2018-06-08T02:48:32.255Z,0.00
2018-06-08T02:49:32.501Z,0.00
2018-06-08T02:50:32.743Z,0.00
2018-06-08T02:51:32.990Z,0.00
2018-06-08T02:52:33.221Z,0.00
2018-06-08T02:53:33.487Z,0.00
2018-06-08T02:54:33.708Z,0.00
2018-06-08T02:55:33.942Z,0.00
2018-06-08T02:56:34.185Z,0.00
2018-06-08T02:57:34.443Z,0.00
2018-06-08T02:58:34.658Z,0.00
2018-06-08T02:59:34.911Z,0.00
2018-06-08T03:00:35.158Z,0.00
2018-06-08T03:01:35.406Z,0.00
2018-06-08T03:02:35.645Z,0.00
2018-06-08T03:03:35.875Z,0.00
2018-06-08T03:04:36.124Z,0.00
2018-06-08T03:05:36.378Z,0.00
2018-06-08T03:06:36.597Z,0.00
2018-06-08T03:07:36.855Z,0.00
2018-06-08T03:08:37.102Z,5.63
2018-06-08T03:09:37.357Z,5.63
2018-06-08T03:10:37.584Z,5.63
2018-06-08T03:11:37.851Z,5.63
2018-06-08T03:12:38.071Z,5.63
2018-06-08T03:13:38.328Z,5.63
2018-06-08T03:14:38.563Z,5.63
2018-06-08T03:15:38.803Z,5.63
2018-06-08T03:16:39.040Z,5.63
2018-06-08T03:17:39.275Z,5.63
2018-06-08T03:18:39.526Z,11.25
2018-06-08T03:19:39.748Z,11.25
2018-06-08T03:20:39.982Z,11.25
2018-06-08T03:21:40.230Z,11.25
2018-06-08T03:22:40.466Z,11.25
2018-06-08T03:23:40.712Z,11.25
2018-06-08T03:24:40.969Z,11.25
2018-06-08T03:25:41.201Z,11.25
2018-06-08T03:26:41.423Z,16.88
2018-06-08T03:27:41.658Z,16.88
2018-06-08T03:28:41.902Z,16.88
2018-06-08T03:29:42.150Z,16.88
2018-06-08T03:30:42.376Z,16.88
2018-06-08T03:31:42.629Z,16.88
2018-06-08T03:32:42.872Z,22.50
2018-06-08T03:33:43.073Z,22.50
2018-06-08T03:34:43.327Z,22.50
2018-06-08T03:35:43.553Z,22.50
2018-06-08T03:36:43.793Z,22.50
2018-06-08T03:37:44.052Z,22.50
2018-06-08T03:38:44.336Z,22.50
2018-06-08T03:39:44.529Z,22.50
2018-06-08T03:40:44.768Z,22.50
2018-06-08T03:41:45.008Z,22.50
2018-06-08T03:42:45.258Z,22.50
2018-06-08T03:43:45.487Z,28.13
2018-06-08T03:44:45.730Z,28.13
2018-06-08T03:45:45.974Z,28.13
2018-06-08T03:46:46.217Z,28.13
2018-06-08T03:47:46.464Z,28.13
2018-06-08T03:48:46.689Z,28.13
2018-06-08T03:49:46.929Z,28.13
2018-06-08T03:50:47.193Z,28.13
2018-06-08T03:51:47.423Z,33.75
2018-06-08T03:52:47.667Z,33.75
2018-06-08T03:53:47.892Z,33.75
2018-06-08T03:54:48.138Z,28.13
2018-06-08T03:55:48.391Z,28.13
2018-06-08T03:56:48.618Z,28.13
2018-06-08T03:57:48.886Z,28.13
2018-06-08T03:58:49.111Z,28.13
2018-06-08T03:59:49.341Z,28.13
2018-06-08T04:00:49.583Z,28.13
2018-06-08T04:01:49.818Z,28.13
2018-06-08T04:02:50.060Z,28.13
2018-06-08T04:03:50.299Z,28.13
2018-06-08T04:04:50.549Z,28.13
2018-06-08T04:05:50.793Z,33.75
2018-06-08T04:06:51.030Z,33.75
2018-06-08T04:07:51.277Z,33.75
2018-06-08T04:08:51.536Z,33.75
2018-06-08T04:09:51.739Z,33.75
2018-06-08T04:10:51.983Z,39.38
2018-06-08T04:11:52.217Z,39.38
2018-06-08T04:12:52.468Z,39.38
2018-06-08T04:13:52.677Z,45.00
2018-06-08T04:14:52.910Z,45.00
2018-06-08T04:15:53.167Z,45.00
2018-06-08T04:16:53.418Z,45.00
2018-06-08T04:17:53.663Z,45.00
2018-06-08T04:18:53.930Z,45.00
2018-06-08T04:19:54.147Z,45.00
2018-06-08T04:20:54.403Z,50.63
2018-06-08T04:21:54.649Z,50.63
2018-06-08T04:22:54.868Z,50.63
2018-06-08T04:23:55.172Z,50.63
2018-06-08T04:24:55.352Z,50.63
2018-06-08T04:25:55.602Z,50.63
2018-06-08T04:26:55.868Z,50.63
2018-06-08T04:27:56.132Z,50.63
2018-06-08T04:28:56.378Z,50.63
2018-06-08T04:29:56.609Z,50.63
2018-06-08T04:30:56.845Z,50.63
2018-06-08T04:31:57.089Z,50.63
2018-06-08T04:32:57.386Z,50.63
2018-06-08T04:33:57.585Z,50.63
2018-06-08T04:34:57.823Z,56.25
2018-06-08T04:35:58.091Z,56.25
2018-06-08T04:36:58.293Z,56.25
2018-06-08T04:37:58.559Z,56.25
2018-06-08T04:38:58.818Z,56.25
2018-06-08T04:39:59.038Z,56.25
2018-06-08T04:40:59.290Z,56.25
2018-06-08T04:41:59.533Z,56.25
2018-06-08T04:42:59.779Z,56.25
2018-06-08T04:43:59.992Z,56.25
2018-06-08T04:45:00.240Z,61.88
2018-06-08T04:46:00.485Z,61.88
2018-06-08T04:47:00.730Z,61.88
2018-06-08T04:48:00.972Z,61.88
2018-06-08T04:49:01.214Z,67.50
2018-06-08T04:50:01.482Z,67.50
2018-06-08T04:51:01.680Z,67.50
2018-06-08T04:52:01.947Z,67.50
2018-06-08T04:53:02.193Z,67.50
2018-06-08T04:54:02.469Z,67.50
2018-06-08T04:55:02.675Z,73.13
2018-06-08T04:56:02.918Z,73.13
2018-06-08T04:57:03.172Z,78.75
2018-06-08T04:58:03.404Z,78.75
2018-06-08T04:59:03.646Z,84.38
2018-06-08T05:00:03.884Z,84.38
2018-06-08T05:01:04.131Z,90.00
2018-06-08T05:02:04.369Z,90.00
2018-06-08T05:03:04.692Z,90.00
2018-06-08T05:04:04.877Z,95.63
2018-06-08T05:05:05.119Z,95.63
2018-06-08T05:06:05.340Z,101.25
2018-06-08T05:07:05.592Z,101.25
2018-06-08T05:08:05.848Z,106.88
2018-06-08T05:09:06.077Z,112.50
2018-06-08T05:10:06.348Z,118.13
2018-06-08T05:11:06.564Z,118.13
2018-06-08T05:12:06.825Z,123.75
2018-06-08T05:13:07.048Z,123.75
2018-06-08T05:14:07.357Z,123.75
2018-06-08T05:15:07.557Z,123.75
2018-06-08T05:16:07.805Z,123.75
2018-06-08T05:17:08.068Z,118.13
2018-06-08T05:18:08.271Z,118.13
2018-06-08T05:19:08.554Z,123.75
2018-06-08T05:20:08.744Z,123.75
2018-06-08T05:21:08.987Z,129.38
2018-06-08T05:22:09.233Z,129.38
2018-06-08T05:23:09.469Z,135.00
2018-06-08T05:24:09.715Z,140.63
2018-06-08T05:25:09.944Z,140.63
2018-06-08T05:26:10.193Z,140.63
2018-06-08T05:27:10.465Z,146.25
2018-06-08T05:28:10.684Z,146.25
2018-06-08T05:29:10.912Z,146.25
2018-06-08T05:30:11.176Z,146.25
2018-06-08T05:31:11.414Z,146.25
2018-06-08T05:32:11.648Z,151.88
2018-06-08T05:33:11.873Z,151.88
2018-06-08T05:34:12.101Z,157.50
2018-06-08T05:35:20.984Z,163.13
2018-06-08T05:36:21.396Z,168.75
2018-06-08T05:37:21.884Z,174.38
2018-06-08T05:38:22.211Z,180.00
2018-06-08T05:39:22.588Z,185.63
2018-06-08T05:40:14.336Z,191.25
2018-06-08T05:41:23.273Z,191.25
2018-06-08T05:42:15.004Z,191.25
2018-06-08T05:43:15.195Z,191.25
2018-06-08T05:44:24.136Z,191.25
2018-06-08T05:45:15.844Z,191.25
2018-06-08T05:46:16.053Z,196.88
2018-06-08T05:47:25.933Z,196.88
2018-06-08T05:48:16.547Z,196.88
2018-06-08T05:49:16.784Z,196.88
2018-06-08T05:50:17.014Z,196.88
2018-06-08T05:51:17.238Z,202.50
2018-06-08T05:52:17.497Z,208.13
2018-06-08T05:53:17.728Z,213.75
2018-06-08T05:54:18.012Z,219.38
2018-06-08T05:55:18.213Z,225.00
2018-06-08T05:56:18.459Z,230.63
2018-06-08T05:57:18.716Z,230.63
2018-06-08T05:58:18.980Z,236.25
2018-06-08T05:59:19.179Z,230.63
2018-06-08T06:00:19.438Z,264.38
2018-06-08T06:01:19.697Z,264.38
2018-06-08T06:02:19.929Z,270.00
2018-06-08T06:03:20.193Z,264.38
2018-06-08T06:04:20.430Z,258.75
2018-06-08T06:05:20.676Z,258.75
2018-06-08T06:06:20.911Z,241.88
2018-06-08T06:07:21.152Z,247.50
2018-06-08T06:08:21.388Z,241.88
2018-06-08T06:09:21.632Z,241.88
2018-06-08T06:10:21.887Z,241.88
2018-06-08T06:11:22.133Z,241.88
2018-06-08T06:12:31.083Z,241.88
2018-06-08T06:13:22.782Z,247.50
2018-06-08T06:14:23.049Z,247.50
2018-06-08T06:15:23.239Z,247.50
2018-06-08T06:16:23.518Z,247.50
2018-06-08T06:17:23.721Z,247.50
2018-06-08T06:18:32.673Z,253.13
2018-06-08T06:19:24.417Z,264.38
2018-06-08T06:20:33.364Z,264.38
2018-06-08T06:21:24.992Z,275.63
2018-06-08T06:22:25.252Z,281.25
2018-06-08T06:23:34.123Z,292.50
2018-06-08T06:24:25.942Z,298.13
2018-06-08T06:25:26.096Z,309.38
2018-06-08T06:26:35.098Z,320.63
2018-06-08T06:27:35.492Z,331.88
2018-06-08T06:28:36.905Z,337.50
2018-06-08T06:29:27.465Z,343.13
2018-06-08T06:30:27.646Z,348.75
2018-06-08T06:31:27.894Z,354.38
2018-06-08T06:32:36.944Z,360.00
2018-06-08T06:33:37.253Z,365.63
2018-06-08T06:34:29.031Z,371.25
2018-06-08T06:35:29.211Z,376.88
2018-06-08T06:36:38.296Z,382.50
2018-06-08T06:37:38.455Z,388.13
2018-06-08T06:38:38.761Z,388.13
2018-06-08T06:39:39.152Z,393.75
2018-06-08T06:40:39.812Z,393.75
2018-06-08T06:41:39.720Z,399.38
2018-06-08T06:42:40.108Z,399.38
2018-06-08T06:43:39.467Z,405.00
2018-06-08T06:44:32.123Z,405.00
2018-06-08T06:45:32.366Z,410.63
2018-06-08T06:46:32.621Z,416.25
2018-06-08T06:47:32.868Z,416.25
2018-06-08T06:48:33.128Z,421.88
2018-06-08T06:49:33.359Z,427.50
2018-06-08T06:50:33.604Z,433.13
2018-06-08T06:51:33.850Z,438.75
2018-06-08T06:52:34.088Z,444.38
2018-06-08T06:53:34.332Z,450.00
2018-06-08T06:54:34.582Z,455.63
2018-06-08T06:55:34.827Z,461.25
2018-06-08T06:56:35.088Z,466.88
2018-06-08T06:57:35.319Z,466.88
2018-06-08T06:58:35.556Z,466.88
2018-06-08T06:59:35.805Z,472.50
2018-06-08T07:00:36.040Z,472.50
2018-06-08T07:01:36.289Z,478.13
2018-06-08T07:02:36.543Z,483.75
2018-06-08T07:03:36.805Z,495.00
2018-06-08T07:04:37.042Z,506.25
2018-06-08T07:05:37.285Z,511.88
2018-06-08T07:06:37.528Z,517.50
2018-06-08T07:07:37.770Z,528.75
2018-06-08T07:08:38.019Z,534.38
2018-06-08T07:09:38.269Z,534.38
2018-06-08T07:10:38.504Z,545.63
2018-06-08T07:11:38.750Z,551.25
2018-06-08T07:12:38.987Z,556.88
2018-06-08T07:13:39.239Z,562.50
2018-06-08T07:14:39.478Z,568.13
2018-06-08T07:15:39.737Z,573.75
2018-06-08T07:16:39.971Z,579.38
2018-06-08T07:17:40.214Z,596.25
2018-06-08T07:18:40.467Z,596.25
2018-06-08T07:19:40.705Z,601.88
2018-06-08T07:20:40.959Z,618.75
2018-06-08T07:21:41.199Z,630.00
2018-06-08T07:22:41.441Z,641.25
2018-06-08T07:23:41.706Z,652.50
2018-06-08T07:24:41.956Z,669.38
2018-06-08T07:25:42.210Z,691.88
2018-06-08T07:26:42.441Z,691.88
2018-06-08T07:27:42.688Z,697.50
2018-06-08T07:28:42.936Z,720.00
2018-06-08T07:29:43.186Z,787.50
2018-06-08T07:30:43.436Z,708.75
2018-06-08T07:31:43.755Z,720.00
2018-06-08T07:32:43.924Z,731.25
2018-06-08T07:33:44.177Z,770.63
2018-06-08T07:34:44.432Z,798.75
2018-06-08T07:35:44.673Z,748.13
2018-06-08T07:36:44.914Z,759.38
2018-06-08T07:37:45.174Z,793.13
2018-06-08T07:38:45.415Z,843.75
2018-06-08T07:39:45.648Z,781.88
2018-06-08T07:40:45.898Z,776.25
2018-06-08T07:41:46.146Z,781.88
2018-06-08T07:42:46.406Z,765.00
2018-06-08T07:43:46.647Z,759.38
2018-06-08T07:44:46.898Z,765.00
2018-06-08T07:45:47.149Z,765.00
2018-06-08T07:46:47.457Z,781.88
2018-06-08T07:47:47.647Z,781.88
2018-06-08T07:48:47.894Z,770.63
2018-06-08T07:49:48.147Z,787.50
2018-06-08T07:50:48.391Z,770.63
2018-06-08T07:51:48.643Z,781.88
2018-06-08T07:52:48.896Z,787.50
2018-06-08T07:53:49.148Z,781.88
2018-06-08T07:54:49.396Z,821.25
2018-06-08T07:55:49.680Z,815.63
2018-06-08T07:56:49.913Z,815.63
2018-06-08T07:57:50.188Z,832.50
2018-06-08T07:58:50.423Z,832.50
2018-06-08T07:59:50.674Z,843.75
2018-06-08T08:00:50.907Z,832.50
2018-06-08T08:01:51.155Z,843.75
2018-06-08T08:02:51.405Z,849.38
2018-06-08T08:03:51.648Z,843.75
2018-06-08T08:04:51.904Z,838.13
2018-06-08T08:05:52.149Z,855.00
2018-06-08T08:06:52.406Z,883.13
2018-06-08T08:08:01.270Z,911.25
2018-06-08T08:08:53.064Z,866.25
2018-06-08T08:09:53.266Z,821.25
2018-06-08T08:10:53.518Z,832.50
2018-06-08T08:11:53.784Z,838.13
2018-06-08T08:12:54.040Z,860.63
2018-06-08T08:13:54.286Z,900.00
2018-06-08T08:14:54.547Z,916.88
2018-06-08T08:15:54.771Z,978.75
2018-06-08T08:16:55.009Z,939.38
2018-06-08T08:17:55.280Z,1001.25
2018-06-08T08:18:55.524Z,1018.13
2018-06-08T08:19:55.785Z,1006.88
2018-06-08T08:20:56.028Z,1074.38
2018-06-08T08:21:56.262Z,1209.38
2018-06-08T08:22:56.513Z,1147.50
2018-06-08T08:23:56.785Z,978.75
2018-06-08T08:24:57.021Z,1293.75
2018-06-08T08:25:57.266Z,1260.00
2018-06-08T08:26:57.527Z,1344.38
2018-06-08T08:28:06.496Z,961.88
2018-06-08T08:29:06.879Z,950.63
2018-06-08T08:30:08.339Z,1035.00
2018-06-08T08:31:08.448Z,1175.63
2018-06-08T08:31:59.068Z,1068.75
2018-06-08T08:32:59.319Z,1040.63
2018-06-08T08:33:59.591Z,978.75
2018-06-08T08:34:59.834Z,1063.13
2018-06-08T08:36:00.087Z,1119.38
2018-06-08T08:37:00.329Z,984.38
2018-06-08T08:38:00.593Z,956.25
2018-06-08T08:39:00.821Z,978.75
2018-06-08T08:40:01.081Z,945.00
2018-06-08T08:41:01.356Z,950.63
2018-06-08T08:42:01.567Z,922.50
2018-06-08T08:43:01.814Z,990.00
2018-06-08T08:44:02.067Z,1203.75
2018-06-08T08:45:02.317Z,911.25
2018-06-08T08:46:02.565Z,978.75
2018-06-08T08:47:02.816Z,928.13
2018-06-08T08:48:03.081Z,838.13
2018-06-08T08:49:03.333Z,832.50
2018-06-08T08:50:03.560Z,843.75
2018-06-08T08:51:03.850Z,911.25
2018-06-08T08:52:04.147Z,933.75
2018-06-08T08:53:04.347Z,956.25
2018-06-08T08:54:04.616Z,1001.25
2018-06-08T08:55:04.854Z,1001.25
2018-06-08T08:56:05.107Z,1063.13
2018-06-08T08:57:05.413Z,1063.13
2018-06-08T08:58:05.614Z,1046.25
2018-06-08T08:59:05.867Z,1068.75
2018-06-08T09:00:06.138Z,1074.38
2018-06-08T09:01:06.412Z,1063.13
2018-06-08T09:02:06.637Z,1057.50
2018-06-08T09:03:06.890Z,1046.25
2018-06-08T09:04:07.145Z,1040.63
2018-06-08T09:05:07.400Z,1012.50
2018-06-08T09:06:07.653Z,978.75
2018-06-08T09:07:07.900Z,984.38
2018-06-08T09:08:08.166Z,984.38
2018-06-08T09:09:08.419Z,961.88
2018-06-08T09:10:08.678Z,933.75
2018-06-08T09:11:08.957Z,939.38
2018-06-08T09:12:09.182Z,967.50
2018-06-08T09:13:09.430Z,922.50
2018-06-08T09:14:09.717Z,849.38
2018-06-08T09:15:09.934Z,826.88
2018-06-08T09:16:10.173Z,826.88
2018-06-08T09:17:10.446Z,860.63
2018-06-08T09:18:10.693Z,894.38
2018-06-08T09:19:10.952Z,928.13
2018-06-08T09:20:11.221Z,1006.88
2018-06-08T09:21:11.442Z,1068.75
2018-06-08T09:22:11.697Z,1080.00
2018-06-08T09:23:11.932Z,1080.00
2018-06-08T09:24:12.215Z,1068.75
2018-06-08T09:25:12.438Z,1063.13
2018-06-08T09:26:21.387Z,1063.13
2018-06-08T09:27:13.092Z,1051.88
2018-06-08T09:28:13.371Z,1063.13
2018-06-08T09:29:13.589Z,1068.75
2018-06-08T09:30:13.830Z,1068.75
2018-06-08T09:31:14.086Z,1029.38
2018-06-08T09:32:14.324Z,1046.25
2018-06-08T09:33:14.635Z,1068.75
2018-06-08T09:34:14.820Z,1063.13
2018-06-08T09:35:15.064Z,1068.75
2018-06-08T09:36:15.313Z,1113.75
2018-06-08T09:37:15.553Z,1136.25
2018-06-08T09:38:15.811Z,1164.38
2018-06-08T09:39:16.048Z,1181.25
2018-06-08T09:40:16.298Z,1181.25
2018-06-08T09:41:16.568Z,1175.63
2018-06-08T09:42:16.838Z,1130.63
2018-06-08T09:43:17.080Z,1175.63
2018-06-08T09:44:17.325Z,1153.13
2018-06-08T09:45:17.597Z,1051.88
2018-06-08T09:46:17.889Z,1023.75
2018-06-08T09:47:18.111Z,1215.00
2018-06-08T09:48:18.357Z,1215.00
2018-06-08T09:49:18.616Z,1164.38
2018-06-08T09:50:18.869Z,1220.63
2018-06-08T09:51:19.120Z,1215.00
2018-06-08T09:52:19.369Z,1220.63
2018-06-08T09:53:19.633Z,1153.13
2018-06-08T09:54:19.862Z,1147.50
2018-06-08T09:55:20.127Z,1102.50
2018-06-08T09:56:20.371Z,1181.25
2018-06-08T09:57:20.642Z,1125.00
2018-06-08T09:58:20.904Z,1130.63
2018-06-08T09:59:21.170Z,1175.63
2018-06-08T10:00:21.422Z,1119.38
2018-06-08T10:01:21.687Z,1040.63
2018-06-08T10:02:21.941Z,1085.63
2018-06-08T10:03:30.804Z,1226.25
2018-06-08T10:04:31.251Z,945.00
2018-06-08T10:05:32.728Z,956.25
2018-06-08T10:06:23.427Z,1006.88
2018-06-08T10:07:34.208Z,1046.25
2018-06-08T10:08:32.695Z,1136.25
2018-06-08T10:09:35.125Z,1175.63
2018-06-08T10:10:34.353Z,1271.25
2018-06-08T10:11:34.707Z,1310.63
2018-06-08T10:12:34.764Z,1271.25
2018-06-08T10:13:35.104Z,1411.88
2018-06-08T10:14:35.529Z,1867.50
2018-06-08T10:15:34.732Z,1974.38
2018-06-08T10:16:37.081Z,2581.88
2018-06-08T10:17:26.678Z,2418.75
2018-06-08T10:18:37.583Z,2570.63
2018-06-08T10:19:36.957Z,2604.38
2018-06-08T10:20:37.319Z,2559.38
2018-06-08T10:21:36.590Z,2323.13
2018-06-08T10:22:28.263Z,2261.25
2018-06-08T10:23:37.150Z,2486.25
2018-06-08T10:24:36.562Z,2581.88
2018-06-08T10:25:29.284Z,2520.00
2018-06-08T10:26:29.483Z,2610.00
2018-06-08T10:27:38.365Z,2621.25
2018-06-08T10:28:38.884Z,2626.88
2018-06-08T10:29:39.223Z,2722.50
2018-06-08T10:30:38.604Z,2773.13
2018-06-08T10:31:31.270Z,2660.63
2018-06-08T10:32:42.572Z,2694.38
2018-06-08T10:33:40.540Z,2666.25
2018-06-08T10:34:40.909Z,2677.50
2018-06-08T10:35:41.401Z,2615.63
2018-06-08T10:36:33.138Z,2593.13
2018-06-08T10:37:33.394Z,2610.00
2018-06-08T10:38:33.616Z,1001.25
2018-06-08T10:39:33.874Z,978.75
2018-06-08T10:40:42.833Z,2435.63
2018-06-08T10:41:43.345Z,2587.50
2018-06-08T10:42:34.939Z,2536.88
2018-06-08T10:43:44.872Z,2542.50
2018-06-08T10:44:44.172Z,2508.75
2018-06-08T10:45:44.638Z,1912.50
2018-06-08T10:46:36.329Z,1462.50
2018-06-08T10:47:36.550Z,1344.38
2018-06-08T10:48:36.784Z,1051.88
2018-06-08T10:49:45.686Z,787.50
2018-06-08T10:50:37.474Z,708.75
2018-06-08T10:51:37.707Z,686.25
2018-06-08T10:52:46.566Z,675.00
2018-06-08T10:53:46.991Z,691.88
2018-06-08T10:54:38.720Z,686.25
2018-06-08T10:55:38.975Z,911.25
2018-06-08T10:56:39.221Z,703.13
2018-06-08T10:57:39.472Z,720.00
2018-06-08T10:58:39.726Z,793.13
2018-06-08T10:59:39.996Z,1012.50
2018-06-08T11:00:48.981Z,950.63
2018-06-08T11:01:40.712Z,1237.50
2018-06-08T11:02:40.940Z,1760.63
2018-06-08T11:03:49.826Z,2851.88
2018-06-08T11:04:41.571Z,2908.13
2018-06-08T11:05:41.857Z,2919.38
2018-06-08T11:06:42.056Z,2947.50
2018-06-08T11:07:42.365Z,2896.88
2018-06-08T11:08:42.572Z,2745.00
2018-06-08T11:09:42.819Z,2615.63
2018-06-08T11:10:43.082Z,2531.25
2018-06-08T11:11:43.335Z,2542.50
2018-06-08T11:12:43.557Z,2542.50
2018-06-08T11:13:43.838Z,2536.88
2018-06-08T11:14:44.074Z,2497.50
2018-06-08T11:15:44.326Z,2531.25
2018-06-08T11:16:44.617Z,2632.50
2018-06-08T11:17:44.842Z,2581.88
2018-06-08T11:18:45.101Z,2553.75
2018-06-08T11:19:45.440Z,2750.63
2018-06-08T11:20:45.610Z,2840.63
2018-06-08T11:21:45.872Z,2846.25
2018-06-08T11:22:46.101Z,2885.63
2018-06-08T11:23:46.351Z,2936.25
2018-06-08T11:24:46.606Z,2885.63
2018-06-08T11:25:46.860Z,2964.38
2018-06-08T11:26:47.187Z,2851.88
2018-06-08T11:27:47.451Z,2694.38
2018-06-08T11:28:47.708Z,2407.50
2018-06-08T11:29:47.969Z,2846.25
2018-06-08T11:30:48.317Z,2913.75
2018-06-08T11:31:48.529Z,2986.88
2018-06-08T11:32:48.772Z,2986.88
2018-06-08T11:33:49.036Z,3003.75
2018-06-08T11:34:49.260Z,3009.38
2018-06-08T11:35:49.528Z,2396.25
2018-06-08T11:36:49.804Z,2289.38
2018-06-08T11:37:50.019Z,2778.75
2018-06-08T11:38:50.274Z,2722.50
2018-06-08T11:39:50.553Z,2773.13
2018-06-08T11:40:50.808Z,2677.50
2018-06-08T11:41:51.051Z,2328.75
2018-06-08T11:42:51.319Z,2002.50
2018-06-08T11:43:51.575Z,1805.63
2018-06-08T11:44:51.842Z,1715.63
2018-06-08T11:45:52.207Z,1698.75
2018-06-08T11:46:52.645Z,1704.38
2018-06-08T11:47:52.749Z,1642.50
2018-06-08T11:48:53.024Z,1586.25
2018-06-08T11:49:53.269Z,1648.13
2018-06-08T11:50:53.510Z,1603.13
2018-06-08T11:51:53.780Z,1591.88
2018-06-08T11:52:54.009Z,1569.38
2018-06-08T11:53:54.284Z,1535.63
2018-06-08T11:54:54.538Z,1541.25
2018-06-08T11:55:54.772Z,1558.13
2018-06-08T11:56:55.031Z,1468.13
2018-06-08T11:57:55.281Z,1361.25
2018-06-08T11:58:55.547Z,1276.88
2018-06-08T11:59:55.816Z,1276.88
2018-06-08T12:00:56.092Z,1231.88
2018-06-08T12:01:56.330Z,1057.50
2018-06-08T12:02:56.604Z,984.38
2018-06-08T12:03:56.885Z,894.38
2018-06-08T12:04:57.117Z,843.75
2018-06-08T12:05:57.400Z,855.00
2018-06-08T12:06:57.636Z,798.75
2018-06-08T12:07:57.869Z,787.50
2018-06-08T12:08:58.137Z,810.00
2018-06-08T12:09:58.376Z,838.13
2018-06-08T12:10:58.624Z,883.13
2018-06-08T12:11:58.879Z,933.75
2018-06-08T12:12:59.140Z,984.38
2018-06-08T12:13:59.401Z,1051.88
2018-06-08T12:14:59.634Z,1113.75
2018-06-08T12:15:59.901Z,1192.50
2018-06-08T12:17:00.186Z,1288.13
2018-06-08T12:18:00.404Z,1378.13
2018-06-08T12:19:00.673Z,1445.63
2018-06-08T12:20:00.931Z,1445.63
2018-06-08T12:21:01.242Z,1445.63
2018-06-08T12:22:01.426Z,1513.13
2018-06-08T12:23:01.676Z,1625.63
2018-06-08T12:24:01.960Z,1591.88
2018-06-08T12:25:02.177Z,1411.88
2018-06-08T12:26:02.437Z,1541.25
2018-06-08T12:27:02.683Z,1395.00
2018-06-08T12:28:02.936Z,1462.50
2018-06-08T12:29:03.210Z,1321.88
2018-06-08T12:30:03.451Z,1350.00
2018-06-08T12:31:03.705Z,1445.63
2018-06-08T12:32:03.947Z,1333.13
2018-06-08T12:33:04.305Z,1383.75
2018-06-08T12:34:04.745Z,1389.38
2018-06-08T12:35:04.982Z,1361.25
2018-06-08T12:36:05.210Z,1479.38
2018-06-08T12:37:05.462Z,1518.75
2018-06-08T12:38:05.710Z,1389.38
2018-06-08T12:39:05.970Z,1479.38
2018-06-08T12:40:06.222Z,1485.00
2018-06-08T12:41:06.514Z,1445.63